EDDCLGKO

Guest
Details From EDDC - Dresden
To LGKO - Kos
Flight Number -
Tags Generated
Created
Modified
Stats Distance 1,032 nm / 1,911 km
Max Altitude 0 ft / 0 m
Waypoints 6
Social Downloads 2
Likes 0
Share VATSIM

Download

Looking for another format? Having issues loading an existing format? Contact us
Advertisement - Login to hide

Notes

Generated

Route

EDDC OB011 NEPOS ASKOS KOS09 LGKO

ID Type Via Altitude Latitude Longitude Leg Dist Tot Dist Heading (true) Name
O EDDC APT - 0 ft / 0 m 51.12425˚ 13.75544˚ - 0 nm - -
OB011 FIX - 0 ft / 0 m 48.02139˚ 17.44289˚ 235 nm 235 nm 141° / 144° -
NEPOS FIX - 0 ft / 0 m 44.00622˚ 21.43761˚ 293 nm 528 nm 144° / 147° -
ASKOS FIX - 0 ft / 0 m 40.63806˚ 24.27028˚ 238 nm 766 nm 147° / 149° -
KOS09 FIX - 0 ft / 0 m 36.92393˚ 27.00488˚ 257 nm 1023 nm 149° / 151° -
O LGKO APT - 0 ft / 0 m 36.80364˚ 27.08364˚ 8 nm 1031 nm 152° / 152° -

Altitude Profile

Advertisement - Login to hide

Weather


0- 5 10 15 20 25 30 35+ Temperature / ° C

Clouds and Precipitation
Forecast for 2017-12-16 00:00 UTC. Updated 20 minutes ago

Ground ~20,000 ft ~40,000 ft Winds

EDDC

Details ICAO EDDC (DRS)
Name Dresden
Region Germany - Civil
Timezone Europe/Berlin (UTC+1.0)
Stats Elevation 752 ft / 229 m (AMSL)
Location 51.134366° 13.768065°
Runways 1
Magnetic Variation 3.800° E

METAR

EDDC 152320Z 15003KT CAVOK M00/M02 Q1001 R04/29//95

Decode

TAF

TAF EDDC 151700Z 1518/1618 22004KT 9999 BKN025 PROB30 TEMPO 1521/1601 3000 -SN BKN010 TEMPO 1601/1608 4000 BR BKN010 TEMPO 1614/1618 2500 -SHSN BKN008 BKN015CB

Decode

Departure Runways

ID Width Length Bearing (true) Bearing (mag) Surface Threshold Offset Overrun Length
04 197 ft / 60 m 9,348 ft / 2,849 m 40.74° 36.94° Concrete 0 ft / 0 m 0 ft / 0 m
22 197 ft / 60 m 9,348 ft / 2,849 m 220.76° 216.96° Concrete 984 ft / 300 m 0 ft / 0 m

LGKO

Details ICAO LGKO (KGS)
Name KOS
Region Greece
Timezone Europe/Athens (UTC+2.0)
Stats Elevation 412 ft / 126 m (AMSL)
Location 36.794403° 27.090764°
Runways 1
Magnetic Variation 4.724° E

METAR

LGKO 152320Z 19006KT 9999 FEW018 SCT025 16/10 Q1019

Decode

TAF

TAF LGKO 151700Z 1518/1618 21012KT 9999 FEW018 BECMG 1606/1608 14015KT BECMG 1612/1614 18020G30KT PROB30 TEMPO 1612/1618 5000 RA SCT020 BKN030

Decode

Destination Runways

ID Width Length Bearing (true) Bearing (mag) Surface Threshold Offset Overrun Length
14 148 ft / 45 m 7,923 ft / 2,415 m 148.29° 143.57° Asphalt 0 ft / 0 m 240 ft / 73 m
32 148 ft / 45 m 7,923 ft / 2,415 m 328.30° 323.58° Asphalt 0 ft / 0 m 205 ft / 62 m

Popular Alternatives